Time;durP1;ratioP1;P1;durP2;ratioP2;P2;SDS_P1;SDS_P2;PMS_P1;PMS_P2;Temp;Humidity;BMP_temperature;BMP_pressure;BME280_temperature;BME280_humidity;BME280_pressure;Samples;Min_cycle;Max_cycle;Signal;HPM_P1;HPM_P2
2021/07/14 00:01:39;;;;;;;23.80;21.27;;;19.30;99.90;;;;;;4874679;29;20982;-82
2021/07/14 00:04:06;;;;;;;25.87;23.27;;;19.40;99.90;;;;;;4859462;29;20485;-81
2021/07/14 00:06:36;;;;;;;26.87;24.27;;;19.30;99.90;;;;;;4874316;29;21005;-81
2021/07/14 00:09:07;;;;;;;25.70;23.03;;;19.40;99.90;;;;;;4858170;29;20480;-84
2021/07/14 00:11:40;;;;;;;25.40;22.83;;;19.40;99.90;;;;;;4859349;29;20438;-84
2021/07/14 00:17:13;;;;;;;28.60;25.60;;;19.40;99.90;;;;;;4860164;29;20450;-83
2021/07/14 00:22:31;;;;;;;29.13;25.93;;;19.40;99.90;;;;;;4860484;29;20566;-82
2021/07/14 00:24:59;;;;;;;30.90;26.00;;;19.40;99.90;;;;;;4872726;29;20475;-82
2021/07/14 00:27:26;;;;;;;31.43;28.10;;;19.40;99.90;;;;;;4879378;29;20861;-83
2021/07/14 00:29:57;;;;;;;30.97;27.40;;;19.40;99.90;;;;;;4877598;29;20459;-82
2021/07/14 00:32:25;;;;;;;30.93;27.73;;;19.40;99.90;;;;;;4868563;29;20893;-83
2021/07/14 00:34:53;;;;;;;34.40;30.67;;;19.40;99.90;;;;;;4858738;29;20917;-83
2021/07/14 00:37:21;;;;;;;34.80;31.13;;;19.40;99.90;;;;;;4859305;29;20430;-84
2021/07/14 00:39:55;;;;;;;32.80;29.30;;;19.40;99.90;;;;;;4860279;29;20895;-83
2021/07/14 00:42:26;;;;;;;33.80;30.20;;;19.40;99.90;;;;;;4860120;29;20436;-82
2021/07/14 00:44:55;;;;;;;33.83;30.23;;;19.40;99.90;;;;;;4863894;29;20488;-82
2021/07/14 00:47:27;;;;;;;37.57;31.37;;;19.50;99.90;;;;;;4870031;29;20419;-83
2021/07/14 00:49:55;;;;;;;42.10;34.73;;;19.50;99.90;;;;;;4867271;29;20513;-83
2021/07/14 00:52:22;;;;;;;40.17;32.40;;;19.40;99.90;;;;;;4878300;29;20532;-82
2021/07/14 00:54:50;;;;;;;41.97;32.93;;;19.40;99.90;;;;;;4863561;29;20507;-83
2021/07/14 00:57:20;;;;;;;39.43;33.80;;;19.50;99.90;;;;;;4880269;29;20518;-83
2021/07/14 00:59:47;;;;;;;40.43;34.77;;;19.50;99.90;;;;;;4882152;29;20468;-83
2021/07/14 01:02:14;;;;;;;40.27;34.20;;;19.40;99.90;;;;;;4882540;29;20783;-82
2021/07/14 01:04:46;;;;;;;42.60;36.53;;;19.40;99.90;;;;;;4865313;29;20471;-82
2021/07/14 01:07:22;;;;;;;45.87;36.53;;;19.40;99.90;;;;;;4862314;29;20431;-83
2021/07/14 01:10:14;;;;;;;46.70;37.27;;;19.40;99.90;;;;;;4869864;29;20503;-82
2021/07/14 01:12:50;;;;;;;49.33;38.10;;;19.40;99.90;;;;;;4862594;29;21032;-82
2021/07/14 01:15:19;;;;;;;39.10;30.47;;;19.40;99.90;;;;;;4861097;29;20891;-81
2021/07/14 01:17:58;;;;;;;33.00;27.23;;;19.30;99.90;;;;;;4873782;29;20449;-83
2021/07/14 01:20:37;;;;;;;27.67;23.60;;;19.30;99.90;;;;;;4879906;29;21051;-82
2021/07/14 01:23:19;;;;;;;33.33;22.00;;;19.20;99.90;;;;;;4866138;29;20500;-81
2021/07/14 01:25:52;;;;;;;29.03;21.07;;;19.20;99.90;;;;;;4861623;29;20436;-81
2021/07/14 01:28:21;;;;;;;21.47;17.70;;;19.20;99.90;;;;;;4860815;29;20539;-82
2021/07/14 01:30:49;;;;;;;22.93;19.47;;;19.20;99.90;;;;;;4846267;29;20438;-84
2021/07/14 01:33:21;;;;;;;20.63;17.77;;;19.20;99.90;;;;;;4845928;29;20467;-82
2021/07/14 01:35:51;;;;;;;23.33;17.83;;;19.20;99.90;;;;;;4862487;29;20508;-82
2021/07/14 01:38:24;;;;;;;21.17;18.03;;;19.20;99.90;;;;;;4860461;29;20454;-82
2021/07/14 01:40:57;;;;;;;22.47;18.67;;;19.20;99.90;;;;;;4861560;29;20428;-83
2021/07/14 01:43:25;;;;;;;20.83;16.03;;;19.10;99.90;;;;;;4860691;29;21045;-84
2021/07/14 01:45:54;;;;;;;20.13;15.30;;;19.10;99.90;;;;;;4862762;29;20456;-83
2021/07/14 01:48:23;;;;;;;17.93;15.53;;;19.10;99.90;;;;;;4874034;29;20451;-84
2021/07/14 01:50:51;;;;;;;16.40;14.30;;;19.10;99.90;;;;;;4879868;29;20527;-84
2021/07/14 01:53:20;;;;;;;16.13;14.43;;;19.00;99.90;;;;;;4879992;29;20469;-82
2021/07/14 01:55:48;;;;;;;17.30;14.03;;;19.00;99.90;;;;;;4862334;29;20436;-81
2021/07/14 01:58:17;;;;;;;14.87;13.27;;;19.00;99.90;;;;;;4862227;29;20999;-82
2021/07/14 02:00:46;;;;;;;20.50;14.83;;;19.10;99.90;;;;;;4876325;29;20810;-83
2021/07/14 02:05:55;;;;;;;25.37;20.10;;;19.10;99.90;;;;;;4862289;29;20466;-83
2021/07/14 02:08:22;;;;;;;25.50;20.67;;;19.20;99.90;;;;;;4860510;29;20464;-84
2021/07/14 02:10:51;;;;;;;30.13;25.07;;;19.20;99.90;;;;;;4861897;29;20436;-83
2021/07/14 02:13:24;;;;;;;37.57;29.47;;;19.20;99.90;;;;;;4860687;29;20491;-84
2021/07/14 02:15:56;;;;;;;41.07;32.83;;;19.20;99.90;;;;;;4863138;29;20459;-84
2021/07/14 02:18:26;;;;;;;41.20;32.70;;;19.20;99.90;;;;;;4862063;29;20542;-84
2021/07/14 02:20:56;;;;;;;38.17;32.20;;;19.30;99.90;;;;;;4877598;29;20530;-84
2021/07/14 02:23:23;;;;;;;39.73;31.93;;;19.30;99.90;;;;;;4862148;29;20490;-84
2021/07/14 02:25:50;;;;;;;40.97;33.47;;;19.30;99.90;;;;;;4846663;29;20448;-84
2021/07/14 02:28:18;;;;;;;41.37;33.23;;;19.30;99.90;;;;;;4861066;29;20579;-83
2021/07/14 02:30:45;;;;;;;44.57;34.30;;;19.30;99.90;;;;;;4862052;29;20428;-83
2021/07/14 02:33:14;;;;;;;43.23;34.43;;;19.30;99.90;;;;;;4870711;29;20499;-84
2021/07/14 02:35:45;;;;;;;42.67;33.93;;;19.30;99.90;;;;;;4880252;29;20933;-84
2021/07/14 02:38:28;;;;;;;42.50;34.70;;;19.30;99.90;;;;;;4879340;29;20849;-84
2021/07/14 02:41:13;;;;;;;46.97;35.70;;;19.20;99.90;;;;;;4861425;29;20428;-83
2021/07/14 02:43:45;;;;;;;39.20;33.87;;;19.20;99.90;;;;;;4844081;29;20476;-83
2021/07/14 02:46:23;;;;;;;48.27;35.80;;;19.20;99.90;;;;;;4860223;29;20528;-83
2021/07/14 02:48:56;;;;;;;45.90;35.40;;;19.20;99.90;;;;;;4877347;29;20484;-84
2021/07/14 02:51:26;;;;;;;49.43;35.83;;;19.20;99.90;;;;;;4879031;29;20530;-84
2021/07/14 02:53:58;;;;;;;41.27;35.07;;;19.20;99.90;;;;;;4874772;29;20488;-84
2021/07/14 02:56:28;;;;;;;50.20;37.80;;;19.20;99.90;;;;;;4869781;29;20453;-84
2021/07/14 02:58:59;;;;;;;42.50;35.70;;;19.20;99.90;;;;;;4878273;29;20486;-82
2021/07/14 03:01:29;;;;;;;42.73;36.40;;;19.30;99.90;;;;;;4879973;29;20451;-82
2021/07/14 03:04:01;;;;;;;44.90;34.70;;;19.30;99.90;;;;;;4878609;29;20514;-84
2021/07/14 03:06:32;;;;;;;45.10;34.00;;;19.30;99.90;;;;;;4878777;29;20452;-83
2021/07/14 03:09:04;;;;;;;41.80;35.30;;;19.30;99.90;;;;;;4859736;29;20507;-82
2021/07/14 03:11:35;;;;;;;39.67;33.70;;;19.20;99.90;;;;;;4845243;29;20447;-84
2021/07/14 03:14:04;;;;;;;47.37;33.50;;;19.20;99.90;;;;;;4860202;29;20494;-84
2021/07/14 03:16:33;;;;;;;39.70;34.40;;;19.20;99.90;;;;;;4862364;29;20480;-84
2021/07/14 03:19:04;;;;;;;41.80;33.90;;;19.30;99.90;;;;;;4879386;29;20475;-82
2021/07/14 03:21:32;;;;;;;38.80;30.67;;;19.30;99.90;;;;;;4880172;29;20969;-85
2021/07/14 03:24:01;;;;;;;37.30;31.90;;;19.20;99.90;;;;;;4877433;29;20477;-82
2021/07/14 03:26:28;;;;;;;42.87;34.20;;;19.20;99.90;;;;;;4878733;29;20980;-84
2021/07/14 03:28:56;;;;;;;38.33;31.83;;;19.20;99.90;;;;;;4873413;29;20546;-83
2021/07/14 03:31:24;;;;;;;38.47;32.43;;;19.20;99.90;;;;;;4881737;29;20891;-84
2021/07/14 03:33:52;;;;;;;36.50;31.03;;;19.20;99.90;;;;;;4875098;29;20990;-82
2021/07/14 03:36:20;;;;;;;46.27;31.70;;;19.20;99.90;;;;;;4859947;29;20531;-85
2021/07/14 03:38:47;;;;;;;33.67;29.03;;;19.10;99.90;;;;;;4860940;29;21022;-85
2021/07/14 03:41:15;;;;;;;29.80;23.50;;;19.10;99.90;;;;;;4875306;29;20438;-84
2021/07/14 03:43:42;;;;;;;28.73;22.57;;;19.10;99.90;;;;;;4860339;29;20599;-84
2021/07/14 03:46:09;;;;;;;31.00;21.47;;;19.10;99.90;;;;;;4874810;29;20450;-83
2021/07/14 03:48:38;;;;;;;27.13;21.57;;;19.10;99.90;;;;;;4873337;29;20512;-84
2021/07/14 03:51:06;;;;;;;25.20;20.50;;;19.00;99.90;;;;;;4860170;29;20533;-84
2021/07/14 03:53:34;;;;;;;24.73;19.30;;;19.00;99.90;;;;;;4843554;29;20463;-85
2021/07/14 03:56:01;;;;;;;24.23;20.43;;;19.00;99.90;;;;;;4866955;29;20529;-84
2021/07/14 03:58:28;;;;;;;23.17;19.07;;;19.00;99.90;;;;;;4876971;29;20494;-83
2021/07/14 04:00:57;;;;;;;13.33;8.10;;;19.00;99.90;;;;;;4878734;29;20437;-84
2021/07/14 04:03:27;;;;;;;11.10;7.57;;;18.90;99.90;;;;;;4876714;29;20467;-83
2021/07/14 04:06:05;;;;;;;14.83;6.50;;;18.90;99.90;;;;;;4877919;29;20439;-84
2021/07/14 04:08:48;;;;;;;11.97;5.40;;;18.80;99.90;;;;;;4876007;29;21056;-84
2021/07/14 04:11:17;;;;;;;9.97;5.53;;;18.80;99.90;;;;;;4861042;29;20507;-84
2021/07/14 04:13:44;;;;;;;12.47;5.40;;;18.70;99.90;;;;;;4874917;29;20500;-84
2021/07/14 04:16:11;;;;;;;11.40;4.80;;;18.70;99.90;;;;;;4862112;29;20438;-83
2021/07/14 04:18:40;;;;;;;8.33;4.43;;;18.70;99.90;;;;;;4864284;29;20498;-82
2021/07/14 04:21:07;;;;;;;8.20;3.87;;;18.70;99.90;;;;;;4864573;29;20436;-82
2021/07/14 04:23:34;;;;;;;6.57;3.50;;;18.70;99.90;;;;;;4862291;29;20493;-84
2021/07/14 04:26:01;;;;;;;6.20;4.00;;;18.70;99.90;;;;;;4863321;29;20438;-85
2021/07/14 04:28:32;;;;;;;7.47;3.57;;;18.70;99.90;;;;;;4863728;29;20557;-83
2021/07/14 04:30:59;;;;;;;11.40;2.80;;;18.60;99.90;;;;;;4863397;29;20527;-83
2021/07/14 04:33:26;;;;;;;3.93;2.90;;;18.60;99.90;;;;;;4863961;29;20468;-84
2021/07/14 04:35:53;;;;;;;7.90;3.53;;;18.60;99.90;;;;;;4864401;29;20428;-83
2021/07/14 04:38:21;;;;;;;6.27;3.20;;;18.60;99.90;;;;;;4857390;29;20461;-83
2021/07/14 04:40:48;;;;;;;9.07;4.07;;;18.60;99.90;;;;;;4878882;29;20484;-84
2021/07/14 04:43:15;;;;;;;17.63;4.70;;;18.60;99.90;;;;;;4847068;29;20469;-83
2021/07/14 04:45:42;;;;;;;6.90;3.63;;;18.60;99.90;;;;;;4863831;29;20435;-84
2021/07/14 04:48:09;;;;;;;5.97;3.50;;;18.50;99.90;;;;;;4864075;29;20864;-84
2021/07/14 04:50:36;;;;;;;7.10;4.83;;;18.50;99.90;;;;;;4847778;29;20432;-85
2021/07/14 04:53:03;;;;;;;9.53;4.23;;;18.50;99.90;;;;;;4863981;29;20536;-84
2021/07/14 04:55:38;;;;;;;10.23;3.90;;;18.50;99.90;;;;;;4880454;29;20505;-82
2021/07/14 04:58:05;;;;;;;6.73;3.40;;;18.40;99.90;;;;;;4881190;29;20463;-83
2021/07/14 05:00:35;;;;;;;8.60;3.20;;;18.50;99.90;;;;;;4881197;29;20430;-83
2021/07/14 05:03:02;;;;;;;11.90;3.37;;;18.50;99.90;;;;;;4877437;29;20500;-84
2021/07/14 05:05:32;;;;;;;6.27;3.70;;;18.50;99.90;;;;;;4862197;29;20496;-82
2021/07/14 05:08:02;;;;;;;8.00;3.77;;;18.50;99.90;;;;;;4862937;29;20451;-83
2021/07/14 05:10:30;;;;;;;5.30;3.80;;;18.50;99.90;;;;;;4862888;29;20466;-84
2021/07/14 05:13:04;;;;;;;5.10;3.33;;;18.50;99.90;;;;;;4861663;29;21038;-84
2021/07/14 05:15:31;;;;;;;11.10;3.83;;;18.50;99.90;;;;;;4841132;29;20462;-84
2021/07/14 05:18:01;;;;;;;6.23;3.20;;;18.50;99.90;;;;;;4846387;29;20471;-84
2021/07/14 05:20:31;;;;;;;6.13;3.80;;;18.50;99.90;;;;;;4848114;29;20463;-84
2021/07/14 05:23:06;;;;;;;7.80;4.43;;;18.50;99.90;;;;;;4861825;29;20473;-81
2021/07/14 05:25:50;;;;;;;5.57;4.20;;;18.50;99.90;;;;;;4887743;29;20481;-84
2021/07/14 05:28:17;;;;;;;12.83;6.00;;;18.50;99.90;;;;;;4898576;28;20990;-81
2021/07/14 05:30:45;;;;;;;12.00;6.77;;;18.60;99.90;;;;;;4898986;29;20442;-84
2021/07/14 05:33:15;;;;;;;10.57;5.93;;;18.70;99.90;;;;;;4893140;29;20510;-82
2021/07/14 05:35:49;;;;;;;13.27;5.90;;;18.70;99.90;;;;;;4877072;29;20953;-82
2021/07/14 05:38:20;;;;;;;11.00;7.63;;;18.70;99.90;;;;;;4875621;29;20478;-82
2021/07/14 05:40:48;;;;;;;11.10;7.60;;;18.70;99.90;;;;;;4877314;29;20534;-85
2021/07/14 05:43:16;;;;;;;14.50;8.83;;;18.70;99.90;;;;;;4860949;29;20886;-84
2021/07/14 05:45:44;;;;;;;9.13;8.13;;;18.80;99.90;;;;;;4861227;29;20465;-82
2021/07/14 05:48:12;;;;;;;14.90;9.80;;;18.80;99.90;;;;;;4874906;29;20452;-82
2021/07/14 05:50:39;;;;;;;14.27;11.70;;;18.80;99.90;;;;;;4880042;29;20438;-84
2021/07/14 05:53:07;;;;;;;18.43;14.50;;;18.90;99.90;;;;;;4864667;29;20471;-83
2021/07/14 05:55:34;;;;;;;18.13;14.07;;;18.90;99.90;;;;;;4876581;29;20455;-84
2021/07/14 05:58:01;;;;;;;14.73;12.83;;;18.90;99.90;;;;;;4860440;29;21008;-83
2021/07/14 06:00:30;;;;;;;15.60;13.63;;;18.90;99.90;;;;;;4863167;29;20439;-86
2021/07/14 06:02:57;;;;;;;18.53;14.53;;;19.00;99.90;;;;;;4877167;29;20470;-83
2021/07/14 06:05:29;;;;;;;17.97;14.40;;;18.90;99.90;;;;;;4849844;29;20478;-83
2021/07/14 06:08:00;;;;;;;15.50;13.57;;;18.90;99.90;;;;;;4864664;29;20479;-85
2021/07/14 06:10:28;;;;;;;17.73;13.63;;;19.00;99.90;;;;;;4879193;29;20550;-85
2021/07/14 06:12:59;;;;;;;17.20;14.03;;;19.00;99.90;;;;;;4881250;29;21029;-83
2021/07/14 06:15:35;;;;;;;15.43;13.80;;;19.00;99.90;;;;;;4882223;29;20454;-84
2021/07/14 06:18:02;;;;;;;15.03;13.20;;;18.90;99.90;;;;;;4880674;29;20451;-85
2021/07/14 06:20:33;;;;;;;16.67;11.83;;;19.00;99.90;;;;;;4861113;29;20436;-85
2021/07/14 06:23:03;;;;;;;12.90;11.60;;;18.90;99.90;;;;;;4884055;29;20472;-82
2021/07/14 06:25:33;;;;;;;13.37;11.97;;;18.90;99.90;;;;;;4880019;29;21085;-84
2021/07/14 06:28:02;;;;;;;12.23;10.90;;;19.00;99.90;;;;;;4879859;29;20786;-82
2021/07/14 06:30:36;;;;;;;12.40;11.10;;;19.00;99.90;;;;;;4879074;29;20511;-83
2021/07/14 06:33:03;;;;;;;15.67;10.77;;;19.00;99.90;;;;;;4870039;29;20470;-82
2021/07/14 06:35:32;;;;;;;14.63;12.10;;;18.90;99.90;;;;;;4873149;29;20444;-82
2021/07/14 06:37:59;;;;;;;13.47;12.07;;;19.00;99.90;;;;;;4862592;29;20437;-84
2021/07/14 06:40:27;;;;;;;11.50;10.30;;;18.90;99.90;;;;;;4873709;29;20465;-83
2021/07/14 06:42:54;;;;;;;10.70;9.23;;;19.00;99.90;;;;;;4865073;29;20457;-81
2021/07/14 06:45:23;;;;;;;18.67;11.67;;;18.90;99.90;;;;;;4879503;29;20514;-83
2021/07/14 06:47:55;;;;;;;11.37;9.33;;;18.90;99.90;;;;;;4857534;29;20880;-82
2021/07/14 06:50:23;;;;;;;10.50;9.40;;;19.00;99.90;;;;;;4860571;29;20997;-82
2021/07/14 06:52:50;;;;;;;11.90;10.10;;;19.00;99.90;;;;;;4864513;29;20539;-83
2021/07/14 06:55:17;;;;;;;10.80;9.70;;;18.90;99.90;;;;;;4878871;29;20469;-82
2021/07/14 06:57:45;;;;;;;15.53;10.50;;;18.90;99.90;;;;;;4878078;29;20490;-83
2021/07/14 07:00:16;;;;;;;11.70;10.03;;;18.90;99.90;;;;;;4862511;29;20907;-81
2021/07/14 07:02:44;;;;;;;10.70;9.63;;;18.90;99.90;;;;;;4875465;29;20542;-83
2021/07/14 07:05:22;;;;;;;11.87;9.67;;;18.90;99.90;;;;;;4859052;29;20907;-82
2021/07/14 07:07:56;;;;;;;11.40;8.20;;;18.90;99.90;;;;;;4859653;29;20546;-82
2021/07/14 07:10:23;;;;;;;10.93;9.07;;;18.90;99.90;;;;;;4861335;29;20485;-82
2021/07/14 07:12:50;;;;;;;9.27;8.37;;;18.90;99.90;;;;;;4877992;29;20458;-81
2021/07/14 07:15:18;;;;;;;10.03;7.97;;;18.90;99.90;;;;;;4878380;29;20479;-82
2021/07/14 07:17:48;;;;;;;6.80;6.20;;;18.90;99.90;;;;;;4854867;29;20487;-82
2021/07/14 07:20:23;;;;;;;9.30;6.87;;;18.90;99.90;;;;;;4859334;29;20480;-83
2021/07/14 07:22:51;;;;;;;9.43;6.57;;;18.90;99.90;;;;;;4859570;29;20456;-82
2021/07/14 07:25:29;;;;;;;7.60;6.40;;;18.80;99.90;;;;;;4872934;29;20568;-82
2021/07/14 07:27:59;;;;;;;6.87;5.80;;;18.80;99.90;;;;;;4861625;29;20431;-82
2021/07/14 07:30:29;;;;;;;6.87;6.17;;;18.80;99.90;;;;;;4859625;29;20469;-84
2021/07/14 07:32:59;;;;;;;7.20;6.03;;;18.80;99.90;;;;;;4855282;29;20801;-84
2021/07/14 07:35:26;;;;;;;7.30;5.17;;;18.80;99.90;;;;;;4859525;29;20474;-83
2021/07/14 07:37:56;;;;;;;8.87;5.60;;;18.80;99.90;;;;;;4862673;29;20803;-83
2021/07/14 07:40:29;;;;;;;5.90;5.30;;;18.80;99.90;;;;;;4874281;29;20486;-82
2021/07/14 07:42:59;;;;;;;6.13;5.30;;;18.70;99.90;;;;;;4875924;29;20528;-82
2021/07/14 07:45:34;;;;;;;9.40;5.60;;;18.70;99.90;;;;;;4861783;29;20484;-82
2021/07/14 07:48:02;;;;;;;4.60;4.13;;;18.80;99.90;;;;;;4876565;29;20551;-82
2021/07/14 07:50:31;;;;;;;5.60;5.10;;;18.80;99.90;;;;;;4877063;29;20872;-81
2021/07/14 07:53:02;;;;;;;5.40;4.90;;;18.70;99.90;;;;;;4888987;23;21795;-82
2021/07/14 07:55:32;;;;;;;5.77;4.77;;;18.80;99.90;;;;;;4881819;29;20575;-83
2021/07/14 07:58:00;;;;;;;5.77;4.50;;;18.80;99.90;;;;;;4885196;29;20436;-81
2021/07/14 08:00:27;;;;;;;6.13;4.43;;;18.80;99.90;;;;;;4898504;29;20458;-82
2021/07/14 08:03:01;;;;;;;7.20;5.33;;;18.80;99.90;;;;;;4878714;29;20472;-82
2021/07/14 08:05:29;;;;;;;8.00;4.50;;;18.80;99.90;;;;;;4879277;29;20494;-81
2021/07/14 08:07:56;;;;;;;5.53;4.73;;;18.80;99.90;;;;;;4898298;29;20780;-81
2021/07/14 08:10:24;;;;;;;5.60;5.10;;;18.80;99.90;;;;;;4895178;29;20504;-82
2021/07/14 08:12:51;;;;;;;5.40;4.70;;;18.80;99.90;;;;;;4880990;29;20466;-81
2021/07/14 08:15:19;;;;;;;7.27;4.80;;;18.80;99.90;;;;;;4896245;29;20473;-82
2021/07/14 08:17:47;;;;;;;5.60;4.93;;;18.80;99.90;;;;;;4892453;29;20455;-83
2021/07/14 08:20:17;;;;;;;6.00;4.90;;;18.80;99.90;;;;;;4893398;29;20471;-81
2021/07/14 08:22:44;;;;;;;5.13;4.73;;;18.80;99.90;;;;;;4893563;29;20456;-81
2021/07/14 08:25:12;;;;;;;5.30;4.80;;;18.80;99.90;;;;;;4876503;29;20541;-83
2021/07/14 08:27:41;;;;;;;6.20;5.03;;;18.80;99.90;;;;;;4878036;29;20789;-82
2021/07/14 08:30:10;;;;;;;6.30;5.20;;;18.80;99.90;;;;;;4877320;29;20508;-82
2021/07/14 08:32:37;;;;;;;5.60;4.53;;;18.80;99.90;;;;;;4872438;29;20446;-83
2021/07/14 08:35:06;;;;;;;5.70;4.60;;;18.80;99.90;;;;;;4895747;29;20462;-82
2021/07/14 08:37:34;;;;;;;7.13;5.60;;;18.80;99.90;;;;;;4895739;29;20454;-82
2021/07/14 08:40:05;;;;;;;3.93;3.60;;;18.80;99.90;;;;;;4889389;28;20527;-84
2021/07/14 08:42:39;;;;;;;4.70;4.30;;;18.70;99.90;;;;;;4892902;29;20448;-82
2021/07/14 08:45:11;;;;;;;4.90;4.40;;;18.70;99.90;;;;;;4876327;29;20536;-83
2021/07/14 08:47:39;;;;;;;4.43;3.67;;;18.70;99.90;;;;;;4882383;29;20453;-82
2021/07/14 08:50:09;;;;;;;5.30;4.80;;;18.70;99.90;;;;;;4879401;29;20479;-83
2021/07/14 08:52:39;;;;;;;5.17;4.33;;;18.70;99.90;;;;;;4880195;29;20444;-82
2021/07/14 08:55:07;;;;;;;5.37;4.80;;;18.70;99.90;;;;;;4891505;29;21098;-83
2021/07/14 08:57:34;;;;;;;4.70;4.03;;;18.60;99.90;;;;;;4876877;29;20539;-82
2021/07/14 09:00:02;;;;;;;5.17;4.53;;;18.70;99.90;;;;;;4876572;29;20505;-83
2021/07/14 09:02:29;;;;;;;4.90;4.17;;;18.70;99.90;;;;;;4878583;29;20930;-83
2021/07/14 09:04:58;;;;;;;10.20;5.33;;;18.70;99.90;;;;;;4880553;29;20505;-81
2021/07/14 09:07:29;;;;;;;5.00;4.50;;;18.70;99.90;;;;;;4881996;29;20437;-83
2021/07/14 09:10:01;;;;;;;5.23;4.73;;;18.70;99.90;;;;;;4864782;29;20479;-82
2021/07/14 09:12:56;;;;;;;5.17;4.67;;;18.80;99.90;;;;;;4880985;29;20452;-83
2021/07/14 09:15:27;;;;;;;3.73;3.43;;;18.80;99.90;;;;;;4878952;29;20472;-83
2021/07/14 09:18:02;;;;;;;4.33;4.00;;;18.80;99.90;;;;;;4865381;29;20448;-83
2021/07/14 09:20:32;;;;;;;4.77;4.20;;;18.70;99.90;;;;;;4865182;29;20466;-83
2021/07/14 09:23:09;;;;;;;4.50;4.10;;;18.80;99.90;;;;;;4880553;29;20467;-83
2021/07/14 09:25:53;;;;;;;4.67;4.13;;;18.80;99.90;;;;;;4880946;29;20484;-84
2021/07/14 09:28:26;;;;;;;6.53;4.63;;;18.80;99.90;;;;;;4879410;29;20473;-84
2021/07/14 09:31:03;;;;;;;4.63;4.13;;;18.80;99.90;;;;;;4880090;29;20529;-84
2021/07/14 09:33:35;;;;;;;4.33;3.93;;;18.80;99.90;;;;;;4871233;29;20511;-84
2021/07/14 09:36:04;;;;;;;4.90;4.40;;;18.80;99.90;;;;;;4900587;29;20655;-82
2021/07/14 09:38:34;;;;;;;4.60;4.20;;;18.80;99.90;;;;;;4880613;29;20469;-83
2021/07/14 09:41:11;;;;;;;6.77;4.60;;;18.80;99.90;;;;;;4881494;29;20424;-83
2021/07/14 09:43:46;;;;;;;6.90;5.47;;;18.80;99.90;;;;;;4879497;29;20482;-82
2021/07/14 09:46:16;;;;;;;5.30;4.43;;;18.70;99.90;;;;;;4880905;29;20491;-82
2021/07/14 09:48:48;;;;;;;6.37;5.17;;;18.70;99.90;;;;;;4881673;29;20477;-82
2021/07/14 09:51:21;;;;;;;6.60;5.53;;;18.70;99.90;;;;;;4887324;29;20435;-82
2021/07/14 09:53:56;;;;;;;6.90;6.30;;;18.70;99.90;;;;;;4895108;29;20551;-82
2021/07/14 09:56:27;;;;;;;5.83;5.20;;;18.70;99.90;;;;;;4896502;29;20455;-83
2021/07/14 09:59:06;;;;;;;7.40;6.07;;;18.70;99.90;;;;;;4880308;29;20482;-84
2021/07/14 10:01:42;;;;;;;7.60;6.90;;;18.70;99.90;;;;;;4894305;29;20459;-83
2021/07/14 10:04:19;;;;;;;8.30;7.50;;;18.60;99.90;;;;;;4880318;29;20890;-83
2021/07/14 10:07:14;;;;;;;7.50;6.80;;;18.70;99.90;;;;;;4880192;29;20509;-83
2021/07/14 10:09:44;;;;;;;9.43;8.50;;;18.60;99.90;;;;;;4889124;29;20479;-82
2021/07/14 10:12:40;;;;;;;7.90;7.10;;;18.70;99.90;;;;;;4900314;29;20436;-82
2021/07/14 10:15:13;;;;;;;7.80;7.07;;;18.70;99.90;;;;;;4897646;29;20471;-82
2021/07/14 10:17:54;;;;;;;7.97;7.00;;;18.70;99.90;;;;;;4913336;29;20541;-81
2021/07/14 10:20:21;;;;;;;7.07;6.47;;;18.70;99.90;;;;;;4898233;28;20459;-83
2021/07/14 10:22:55;;;;;;;8.20;6.93;;;18.70;99.90;;;;;;4897327;29;20539;-84
2021/07/14 10:25:24;;;;;;;8.43;7.70;;;18.70;99.90;;;;;;4880804;29;20578;-83
2021/07/14 10:27:53;;;;;;;9.03;8.00;;;18.70;99.90;;;;;;4879830;29;20438;-83
2021/07/14 10:30:21;;;;;;;9.13;8.23;;;18.70;99.90;;;;;;4893734;29;20468;-83
2021/07/14 10:32:50;;;;;;;8.87;7.97;;;18.70;99.90;;;;;;4893075;29;20468;-83
2021/07/14 10:35:22;;;;;;;8.93;7.97;;;18.60;99.90;;;;;;4878840;29;20567;-83
2021/07/14 10:38:22;;;;;;;9.20;7.63;;;18.60;99.90;;;;;;4877764;29;20423;-83
2021/07/14 10:41:16;;;;;;;10.10;8.20;;;18.50;99.90;;;;;;4879380;29;20922;-82
2021/07/14 10:43:48;;;;;;;11.40;8.80;;;18.50;99.90;;;;;;4878261;29;20463;-83
2021/07/14 10:46:23;;;;;;;7.77;7.03;;;18.50;99.90;;;;;;4878494;29;20484;-83
2021/07/14 10:48:52;;;;;;;7.67;6.77;;;18.50;99.90;;;;;;4878927;29;20489;-80
2021/07/14 10:51:21;;;;;;;7.33;5.83;;;18.50;99.90;;;;;;4896903;29;20439;-84
2021/07/14 10:54:02;;;;;;;6.20;5.60;;;18.50;99.90;;;;;;4892291;29;21018;-85
2021/07/14 10:56:34;;;;;;;5.13;4.63;;;18.40;99.90;;;;;;4878097;29;20907;-84
2021/07/14 10:59:04;;;;;;;5.00;4.00;;;18.30;99.90;;;;;;4892640;29;20544;-84
2021/07/14 11:01:44;;;;;;;6.10;4.30;;;18.30;99.90;;;;;;4878063;29;20439;-84
2021/07/14 11:04:34;;;;;;;5.77;4.77;;;18.20;99.90;;;;;;4888705;28;20470;-82
2021/07/14 11:07:07;;;;;;;5.90;4.70;;;18.20;99.90;;;;;;4897351;29;20557;-84
2021/07/14 11:09:39;;;;;;;6.77;5.40;;;18.10;99.90;;;;;;4886861;29;20468;-82
2021/07/14 11:12:09;;;;;;;7.30;4.60;;;18.20;99.90;;;;;;4893640;29;20460;-82
2021/07/14 11:14:40;;;;;;;5.50;4.00;;;18.20;99.90;;;;;;4877727;29;20465;-81
2021/07/14 11:17:12;;;;;;;4.53;4.10;;;18.20;99.90;;;;;;4877472;29;20490;-82
2021/07/14 11:19:49;;;;;;;5.40;4.90;;;18.20;99.90;;;;;;4891696;29;20506;-81
2021/07/14 11:22:35;;;;;;;5.20;3.43;;;18.20;99.90;;;;;;4878014;29;20447;-81
2021/07/14 11:25:21;;;;;;;3.97;3.60;;;18.20;99.90;;;;;;4877927;29;21083;-83
2021/07/14 11:27:56;;;;;;;7.60;6.63;;;18.20;99.90;;;;;;4895456;29;20562;-82
2021/07/14 11:30:39;;;;;;;4.13;3.73;;;18.20;99.90;;;;;;4880308;29;20485;-85
2021/07/14 11:33:07;;;;;;;3.57;3.27;;;18.20;99.90;;;;;;4875662;29;20477;-85
2021/07/14 11:35:44;;;;;;;4.23;3.83;;;18.20;99.90;;;;;;4877968;29;20459;-82
2021/07/14 11:38:17;;;;;;;4.30;3.90;;;18.10;99.90;;;;;;4877380;29;20571;-82
2021/07/14 11:40:51;;;;;;;3.90;3.50;;;18.20;99.90;;;;;;4893943;29;21000;-84
2021/07/14 11:43:23;;;;;;;4.13;3.73;;;18.20;99.90;;;;;;4877173;29;20474;-82
2021/07/14 11:45:56;;;;;;;6.87;3.80;;;18.10;99.90;;;;;;4880046;29;20473;-83
2021/07/14 11:48:26;;;;;;;4.07;3.63;;;18.20;99.90;;;;;;4890836;28;20466;-81
2021/07/14 11:51:08;;;;;;;4.83;4.43;;;18.10;99.90;;;;;;4893700;29;20837;-84
2021/07/14 11:53:40;;;;;;;4.90;3.73;;;18.10;99.90;;;;;;4877020;29;20966;-83
2021/07/14 11:56:17;;;;;;;4.53;3.87;;;18.20;99.90;;;;;;4893293;29;20432;-83
2021/07/14 11:59:13;;;;;;;4.27;3.87;;;18.20;99.90;;;;;;4878339;29;20571;-84
2021/07/14 12:01:48;;;;;;;5.23;4.40;;;18.10;99.90;;;;;;4893460;29;20855;-84
2021/07/14 12:04:16;;;;;;;6.07;4.30;;;18.10;99.90;;;;;;4878924;29;20516;-81
2021/07/14 12:06:43;;;;;;;5.17;4.20;;;18.10;99.90;;;;;;4879452;29;20471;-82
2021/07/14 12:09:13;;;;;;;6.70;4.33;;;18.10;99.90;;;;;;4884833;29;20533;-83
2021/07/14 12:11:49;;;;;;;5.20;4.53;;;18.10;99.90;;;;;;4909372;29;20447;-84
2021/07/14 12:14:24;;;;;;;6.80;5.60;;;18.00;99.90;;;;;;4894691;28;20982;-82
2021/07/14 12:16:53;;;;;;;5.67;5.17;;;18.10;99.90;;;;;;4894717;29;20465;-84
2021/07/14 12:19:29;;;;;;;6.57;5.97;;;18.00;99.90;;;;;;4924263;28;20486;-82
2021/07/14 12:22:03;;;;;;;6.50;5.20;;;18.00;99.90;;;;;;4892113;29;20459;-83
2021/07/14 12:24:41;;;;;;;5.10;4.60;;;18.00;99.90;;;;;;4882229;29;20493;-84
2021/07/14 12:27:20;;;;;;;6.90;5.67;;;18.00;99.90;;;;;;4889833;29;20505;-82
2021/07/14 12:29:55;;;;;;;6.53;5.70;;;18.00;99.90;;;;;;4885996;28;20520;-84
2021/07/14 12:32:46;;;;;;;6.53;5.60;;;18.00;99.90;;;;;;4878489;29;20549;-84
2021/07/14 12:35:33;;;;;;;6.43;5.47;;;18.00;99.90;;;;;;4891185;29;20476;-84
2021/07/14 12:38:05;;;;;;;6.37;5.43;;;18.00;99.90;;;;;;4877239;29;20455;-84
2021/07/14 12:40:35;;;;;;;6.80;5.83;;;18.00;99.90;;;;;;4883712;29;20502;-85
2021/07/14 12:43:05;;;;;;;7.37;6.47;;;18.00;99.90;;;;;;4880152;29;20561;-85
2021/07/14 12:45:35;;;;;;;9.40;6.97;;;18.00;99.90;;;;;;4880198;29;20956;-85
2021/07/14 12:48:07;;;;;;;10.27;8.20;;;18.00;99.90;;;;;;4881303;29;20995;-83
2021/07/14 12:50:44;;;;;;;10.60;8.33;;;17.90;99.90;;;;;;4880960;29;20450;-83
2021/07/14 12:53:15;;;;;;;9.30;8.00;;;18.00;99.90;;;;;;4885996;29;20492;-84
2021/07/14 12:55:43;;;;;;;11.90;10.00;;;17.90;99.90;;;;;;4880885;29;20447;-84
2021/07/14 12:58:13;;;;;;;11.63;9.50;;;18.00;99.90;;;;;;4880092;29;20462;-83
2021/07/14 13:00:42;;;;;;;16.80;11.23;;;18.00;99.90;;;;;;4881411;29;20454;-85
2021/07/14 13:03:11;;;;;;;15.60;12.37;;;17.90;99.90;;;;;;4879152;29;20532;-86
2021/07/14 13:05:43;;;;;;;13.97;12.00;;;17.90;99.90;;;;;;4882619;29;20430;-86
2021/07/14 13:08:14;;;;;;;16.63;10.87;;;17.90;99.90;;;;;;4881325;29;20431;-85